Time;durP1;ratioP1;P1;durP2;ratioP2;P2;SDS_P1;SDS_P2;PMS_P1;PMS_P2;Temp;Humidity;BMP_temperature;BMP_pressure;BME280_temperature;BME280_humidity;BME280_pressure;Samples;Min_cycle;Max_cycle;Signal;HPM_P1;HPM_P2
2020/12/03 00:00:49;;;;;;;15.47;8.93;;;-0.80;90.00;;;;;;5000105;28;20548;-67
2020/12/03 00:03:20;;;;;;;17.17;8.67;;;-0.90;89.90;;;;;;5003148;28;20734;-69
2020/12/03 00:05:54;;;;;;;11.53;7.20;;;-0.80;90.00;;;;;;4999974;28;20263;-69
2020/12/03 00:08:20;;;;;;;8.50;7.60;;;-0.80;89.60;;;;;;5004272;28;20204;-69
2020/12/03 00:10:45;;;;;;;14.37;8.03;;;-0.90;89.50;;;;;;4995625;28;20212;-66
2020/12/03 00:13:14;;;;;;;9.93;6.27;;;-0.90;89.50;;;;;;5007947;28;20179;-68
2020/12/03 00:15:40;;;;;;;13.73;7.73;;;-0.90;89.40;;;;;;5019472;28;20204;-69
2020/12/03 00:18:06;;;;;;;16.40;9.63;;;-0.90;89.60;;;;;;5002799;28;20213;-66
2020/12/03 00:20:32;;;;;;;15.43;8.47;;;-0.90;89.40;;;;;;4993939;28;20221;-66
2020/12/03 00:22:58;;;;;;;15.33;8.13;;;-0.90;89.60;;;;;;5006953;28;20203;-66
2020/12/03 00:25:24;;;;;;;10.87;6.97;;;-0.90;89.60;;;;;;5005495;28;20193;-66
2020/12/03 00:27:52;;;;;;;11.00;7.33;;;-0.90;89.70;;;;;;4998000;28;20674;-66
2020/12/03 00:30:18;;;;;;;11.20;7.00;;;-0.90;89.70;;;;;;4989899;28;20184;-67
2020/12/03 00:32:44;;;;;;;14.80;7.80;;;-0.90;89.70;;;;;;5007401;28;20173;-66
2020/12/03 00:35:11;;;;;;;17.53;9.27;;;-0.90;89.80;;;;;;5000066;28;20568;-66
2020/12/03 00:37:37;;;;;;;13.97;8.90;;;-1.00;89.90;;;;;;5005077;28;20199;-66
2020/12/03 00:40:03;;;;;;;16.07;9.00;;;-1.00;90.20;;;;;;5005483;28;20601;-67
2020/12/03 00:42:29;;;;;;;18.87;8.20;;;-1.00;90.40;;;;;;5006993;28;20236;-67
2020/12/03 00:44:55;;;;;;;21.87;11.73;;;-1.00;90.50;;;;;;5007108;28;20726;-67
2020/12/03 00:47:20;;;;;;;30.47;10.53;;;-0.90;90.50;;;;;;5004941;28;20208;-67
2020/12/03 00:49:46;;;;;;;19.30;10.27;;;-0.90;90.40;;;;;;5003919;28;20614;-67
2020/12/03 00:52:12;;;;;;;24.83;13.33;;;-0.90;90.50;;;;;;5002666;28;20217;-67
2020/12/03 00:54:37;;;;;;;26.97;10.80;;;-0.90;90.70;;;;;;4994379;28;20190;-67
2020/12/03 00:57:03;;;;;;;19.13;9.70;;;-0.90;91.20;;;;;;4999906;28;20499;-67
2020/12/03 00:59:29;;;;;;;17.27;9.33;;;-0.90;91.40;;;;;;5004424;28;20207;-67
2020/12/03 01:01:54;;;;;;;14.50;7.50;;;-0.80;91.30;;;;;;5009992;28;20271;-68
2020/12/03 01:04:20;;;;;;;17.67;9.30;;;-0.80;91.20;;;;;;5005445;28;20275;-67
2020/12/03 01:06:46;;;;;;;15.17;8.33;;;-0.90;90.70;;;;;;5024431;28;20600;-68
2020/12/03 01:09:13;;;;;;;12.23;7.10;;;-0.90;90.90;;;;;;5007176;28;20209;-68
2020/12/03 01:11:39;;;;;;;13.40;6.50;;;-0.90;90.70;;;;;;4991569;28;20197;-67
2020/12/03 01:14:05;;;;;;;17.60;8.03;;;-1.00;90.60;;;;;;4999205;28;20272;-67
2020/12/03 01:16:30;;;;;;;20.20;7.47;;;-1.00;90.60;;;;;;5005791;28;20236;-67
2020/12/03 01:18:56;;;;;;;14.50;9.10;;;-1.00;90.50;;;;;;5007422;28;20192;-67
2020/12/03 01:21:22;;;;;;;16.03;8.00;;;-1.00;90.60;;;;;;5014542;28;20228;-69
2020/12/03 01:23:50;;;;;;;12.00;6.87;;;-1.00;90.50;;;;;;5031825;28;20194;-66
2020/12/03 01:26:19;;;;;;;14.00;7.33;;;-1.00;90.50;;;;;;5007802;28;20206;-67
2020/12/03 01:28:45;;;;;;;14.83;7.40;;;-1.00;90.40;;;;;;5000512;28;20452;-67
2020/12/03 01:31:11;;;;;;;17.20;7.03;;;-1.00;90.40;;;;;;4999361;28;20212;-68
2020/12/03 01:33:41;;;;;;;14.13;8.63;;;-1.00;90.50;;;;;;5007065;28;20185;-67
2020/12/03 01:36:08;;;;;;;23.30;10.27;;;-1.00;90.70;;;;;;5009314;28;20196;-67
2020/12/03 01:38:33;;;;;;;10.23;7.10;;;-1.00;90.80;;;;;;5010078;28;20539;-68
2020/12/03 01:40:59;;;;;;;9.43;6.50;;;-1.00;90.70;;;;;;5006499;28;20258;-67
2020/12/03 01:43:25;;;;;;;10.80;7.53;;;-1.00;90.80;;;;;;5004255;28;20185;-68
2020/12/03 01:45:59;;;;;;;12.50;6.20;;;-1.00;90.90;;;;;;4990444;28;20253;-68
2020/12/03 01:48:31;;;;;;;12.30;6.60;;;-1.00;90.60;;;;;;4991273;28;20263;-68
2020/12/03 01:50:58;;;;;;;11.43;5.80;;;-1.00;90.40;;;;;;4997018;28;20359;-68
2020/12/03 01:53:25;;;;;;;8.73;5.20;;;-1.10;90.20;;;;;;5009361;28;20178;-68
2020/12/03 01:55:51;;;;;;;9.73;5.30;;;-1.20;90.30;;;;;;4998781;28;20232;-68
2020/12/03 01:58:41;;;;;;;10.37;6.30;;;-1.20;90.40;;;;;;4991102;28;20611;-68
2020/12/03 02:01:08;;;;;;;14.53;6.33;;;-1.20;90.70;;;;;;5004148;28;20208;-67
2020/12/03 02:03:35;;;;;;;8.10;5.57;;;-1.20;90.90;;;;;;5037668;28;20185;-68
2020/12/03 02:06:00;;;;;;;8.13;5.83;;;-1.10;90.80;;;;;;5024621;28;20300;-68
2020/12/03 02:08:26;;;;;;;13.43;6.23;;;-1.20;90.60;;;;;;4997591;28;20185;-68
2020/12/03 02:10:52;;;;;;;10.63;6.13;;;-1.20;90.40;;;;;;5003259;28;20350;-68
2020/12/03 02:13:19;;;;;;;9.03;5.20;;;-1.30;90.50;;;;;;5003989;28;20185;-68
2020/12/03 02:15:45;;;;;;;15.53;7.93;;;-1.20;90.80;;;;;;5008499;28;20203;-67
2020/12/03 02:18:10;;;;;;;10.93;6.53;;;-1.20;91.00;;;;;;5003589;28;20177;-68
2020/12/03 02:20:36;;;;;;;10.63;5.77;;;-1.20;91.10;;;;;;4998213;28;20212;-67
2020/12/03 02:23:10;;;;;;;19.17;7.07;;;-1.20;90.80;;;;;;4993683;28;20185;-67
2020/12/03 02:25:36;;;;;;;18.10;8.83;;;-1.20;91.00;;;;;;5008986;28;20201;-68
2020/12/03 02:28:03;;;;;;;19.53;9.83;;;-1.20;91.00;;;;;;4992738;28;20200;-68
2020/12/03 02:30:29;;;;;;;14.00;7.83;;;-1.10;91.50;;;;;;5040005;28;20315;-68
2020/12/03 02:32:55;;;;;;;19.13;9.30;;;-1.10;91.70;;;;;;5000276;28;20695;-68
2020/12/03 02:35:21;;;;;;;11.37;7.73;;;-1.10;91.60;;;;;;5005052;28;20299;-67
2020/12/03 02:37:46;;;;;;;11.10;6.67;;;-1.00;91.50;;;;;;5002286;28;20254;-68
2020/12/03 02:40:12;;;;;;;16.00;8.47;;;-1.00;91.30;;;;;;5008089;28;20196;-68
2020/12/03 02:42:38;;;;;;;9.77;5.90;;;-1.00;91.10;;;;;;5001578;28;20193;-68
2020/12/03 02:45:04;;;;;;;9.13;5.57;;;-1.00;90.80;;;;;;5005389;28;20187;-68
2020/12/03 02:47:30;;;;;;;10.53;6.23;;;-1.00;90.60;;;;;;5001573;28;20209;-68
2020/12/03 02:49:55;;;;;;;14.03;7.20;;;-1.00;91.10;;;;;;5002361;28;20189;-68
2020/12/03 02:52:23;;;;;;;11.70;6.43;;;-1.10;90.80;;;;;;4989967;28;20217;-68
2020/12/03 02:54:50;;;;;;;10.37;6.37;;;-1.10;90.90;;;;;;5004051;28;20192;-68
2020/12/03 02:57:17;;;;;;;13.67;6.70;;;-1.10;91.10;;;;;;5005141;28;20201;-67
2020/12/03 02:59:43;;;;;;;8.30;5.70;;;-1.20;90.70;;;;;;4996975;28;20654;-68
2020/12/03 03:02:09;;;;;;;9.53;5.37;;;-1.20;90.80;;;;;;5008343;28;20205;-67
2020/12/03 03:04:35;;;;;;;9.23;6.27;;;-1.20;91.30;;;;;;4989257;28;20188;-68
2020/12/03 03:07:01;;;;;;;15.97;5.80;;;-1.20;91.20;;;;;;5030078;28;20209;-67
2020/12/03 03:09:26;;;;;;;17.43;6.20;;;-1.10;91.30;;;;;;4990883;28;20367;-67
2020/12/03 03:11:52;;;;;;;15.63;6.63;;;-1.10;91.30;;;;;;5003766;28;20650;-68
2020/12/03 03:14:19;;;;;;;10.83;7.13;;;-1.10;91.00;;;;;;5001270;28;20517;-68
2020/12/03 03:16:44;;;;;;;12.07;6.57;;;-1.10;91.10;;;;;;4998225;28;20205;-67
2020/12/03 03:19:10;;;;;;;9.80;5.93;;;-1.10;90.90;;;;;;5001965;28;20501;-68
2020/12/03 03:21:36;;;;;;;13.60;5.33;;;-1.10;90.80;;;;;;5006725;28;20588;-68
2020/12/03 03:24:02;;;;;;;10.07;5.73;;;-1.10;90.70;;;;;;5007388;28;20180;-68
2020/12/03 03:26:28;;;;;;;6.20;4.60;;;-1.10;90.60;;;;;;5008515;28;20284;-68
2020/12/03 03:28:54;;;;;;;8.13;5.53;;;-1.20;90.70;;;;;;5003587;28;20207;-68
2020/12/03 03:31:21;;;;;;;15.93;5.20;;;-1.20;90.60;;;;;;5003478;28;20204;-68
2020/12/03 03:33:47;;;;;;;10.50;5.70;;;-1.20;90.80;;;;;;5002410;28;20203;-68
2020/12/03 03:36:13;;;;;;;7.10;5.30;;;-1.20;90.70;;;;;;5006788;28;20754;-68
2020/12/03 03:38:39;;;;;;;10.57;6.03;;;-1.20;90.90;;;;;;5006058;28;20869;-68
2020/12/03 03:41:05;;;;;;;6.73;5.23;;;-1.20;91.10;;;;;;5007587;28;20213;-68
2020/12/03 03:43:31;;;;;;;6.70;4.67;;;-1.20;91.10;;;;;;5007179;28;20197;-69
2020/12/03 03:45:56;;;;;;;7.30;5.57;;;-1.20;90.90;;;;;;5007735;28;20276;-68
2020/12/03 03:48:22;;;;;;;9.07;5.93;;;-1.20;90.80;;;;;;5006312;28;20185;-69
2020/12/03 03:50:48;;;;;;;6.13;4.40;;;-1.20;90.60;;;;;;4994403;28;20567;-68
2020/12/03 03:53:14;;;;;;;6.20;5.07;;;-1.30;90.50;;;;;;4991283;28;20599;-68
2020/12/03 03:55:40;;;;;;;10.70;5.30;;;-1.30;90.60;;;;;;5007222;28;20245;-68
2020/12/03 03:58:09;;;;;;;11.47;6.47;;;-1.30;90.90;;;;;;5007206;28;20512;-68
2020/12/03 04:00:41;;;;;;;9.53;6.07;;;-1.30;91.50;;;;;;5007055;28;20247;-68
2020/12/03 04:03:13;;;;;;;12.97;5.30;;;-1.20;91.60;;;;;;5022523;28;20192;-68
2020/12/03 04:05:43;;;;;;;8.47;5.90;;;-1.20;91.20;;;;;;5038294;28;20545;-68
2020/12/03 04:08:09;;;;;;;11.50;4.67;;;-1.20;91.30;;;;;;5007096;28;20575;-68
2020/12/03 04:10:35;;;;;;;10.10;5.10;;;-1.20;91.00;;;;;;5007367;28;20209;-68
2020/12/03 04:13:00;;;;;;;7.90;4.80;;;-1.20;91.10;;;;;;5021107;28;20203;-69
2020/12/03 04:15:26;;;;;;;11.00;4.47;;;-1.30;91.10;;;;;;5007123;28;20234;-68
2020/12/03 04:17:52;;;;;;;6.90;4.27;;;-1.30;91.20;;;;;;5006320;28;20192;-68
2020/12/03 04:20:18;;;;;;;9.77;5.53;;;-1.30;91.10;;;;;;5007093;28;20189;-68
2020/12/03 04:22:44;;;;;;;7.07;4.93;;;-1.30;91.10;;;;;;5038637;28;20184;-68
2020/12/03 04:25:11;;;;;;;7.00;5.53;;;-1.30;90.90;;;;;;5004609;28;20177;-68
2020/12/03 04:27:37;;;;;;;6.53;4.80;;;-1.30;91.20;;;;;;5004007;28;20192;-68
2020/12/03 04:30:06;;;;;;;14.53;5.13;;;-1.30;91.20;;;;;;5006117;28;20178;-68
2020/12/03 04:32:33;;;;;;;11.43;6.93;;;-1.40;91.60;;;;;;5006429;28;20560;-68
2020/12/03 04:34:58;;;;;;;14.97;6.20;;;-1.40;91.70;;;;;;5006106;28;20578;-68
2020/12/03 04:37:24;;;;;;;11.73;5.53;;;-1.40;91.90;;;;;;5006578;28;20205;-68
2020/12/03 04:39:50;;;;;;;7.63;5.67;;;-1.30;92.00;;;;;;5008064;28;20185;-68
2020/12/03 04:42:32;;;;;;;7.93;5.07;;;-1.30;91.90;;;;;;5009248;28;20208;-68
2020/12/03 04:45:22;;;;;;;7.77;5.20;;;-1.40;91.70;;;;;;5009497;28;20196;-68
2020/12/03 04:48:23;;;;;;;8.03;4.90;;;-1.40;91.90;;;;;;4998414;28;20628;-68
2020/12/03 04:51:05;;;;;;;18.63;4.90;;;-1.40;91.80;;;;;;5002889;28;20239;-67
2020/12/03 04:53:51;;;;;;;10.37;6.93;;;-1.40;91.90;;;;;;5010332;28;20181;-68
2020/12/03 04:56:34;;;;;;;16.43;5.87;;;-1.40;92.00;;;;;;5010513;28;20565;-67
2020/12/03 04:59:20;;;;;;;8.60;6.33;;;-1.40;91.90;;;;;;4991985;28;20220;-67
2020/12/03 05:02:30;;;;;;;10.10;6.13;;;-1.40;92.10;;;;;;5007716;28;20212;-67
2020/12/03 05:05:05;;;;;;;6.50;4.50;;;-1.40;92.20;;;;;;5027498;28;20230;-68
2020/12/03 05:07:32;;;;;;;5.50;3.27;;;-1.50;92.20;;;;;;5026709;28;20203;-68
2020/12/03 05:10:16;;;;;;;5.83;4.13;;;-1.40;92.20;;;;;;5027326;28;20227;-68
2020/12/03 05:12:43;;;;;;;7.37;4.60;;;-1.40;92.10;;;;;;5026740;28;20574;-68
2020/12/03 05:15:28;;;;;;;6.57;4.53;;;-1.40;92.20;;;;;;5008916;28;20242;-67
2020/12/03 05:18:12;;;;;;;6.17;4.93;;;-1.40;92.10;;;;;;5019150;28;20422;-68
2020/12/03 05:21:01;;;;;;;11.43;6.50;;;-1.40;92.00;;;;;;5017719;28;20215;-68
2020/12/03 05:23:32;;;;;;;7.00;4.73;;;-1.40;92.20;;;;;;5010627;28;20172;-68
2020/12/03 05:25:59;;;;;;;6.73;5.30;;;-1.40;92.40;;;;;;5027023;28;20295;-68
2020/12/03 05:28:52;;;;;;;15.63;6.93;;;-1.40;92.30;;;;;;5026718;28;20293;-68
2020/12/03 05:31:27;;;;;;;9.57;6.63;;;-1.40;92.00;;;;;;5009053;28;20664;-68
2020/12/03 05:33:57;;;;;;;10.73;5.40;;;-1.40;92.50;;;;;;5026016;28;20466;-67
2020/12/03 05:36:31;;;;;;;9.83;5.47;;;-1.40;92.30;;;;;;5026311;28;20192;-67
2020/12/03 05:39:04;;;;;;;6.17;5.53;;;-1.50;92.40;;;;;;5026537;28;20169;-68
2020/12/03 05:41:38;;;;;;;8.53;5.50;;;-1.40;92.40;;;;;;5009081;28;20211;-67
2020/12/03 05:44:21;;;;;;;10.20;5.27;;;-1.40;92.30;;;;;;5009922;28;20256;-67
2020/12/03 05:46:49;;;;;;;6.90;4.67;;;-1.50;91.90;;;;;;5041063;28;20355;-67
2020/12/03 05:49:21;;;;;;;8.53;6.33;;;-1.50;92.40;;;;;;5008234;28;20272;-67
2020/12/03 05:52:03;;;;;;;9.43;6.57;;;-1.40;92.40;;;;;;5003626;28;20200;-68
2020/12/03 05:54:29;;;;;;;7.80;5.23;;;-1.40;92.20;;;;;;5009495;28;20188;-67
2020/12/03 05:56:54;;;;;;;9.53;6.30;;;-1.40;92.10;;;;;;5007361;28;20267;-68
2020/12/03 05:59:24;;;;;;;8.50;5.50;;;-1.40;92.30;;;;;;5008531;28;20231;-68
2020/12/03 06:02:07;;;;;;;11.87;6.10;;;-1.40;92.10;;;;;;5008477;28;20267;-68
2020/12/03 06:04:40;;;;;;;9.27;5.83;;;-1.40;91.80;;;;;;5007686;28;20640;-68
2020/12/03 06:07:45;;;;;;;7.57;5.87;;;-1.40;92.00;;;;;;5004593;28;20591;-68
2020/12/03 06:10:25;;;;;;;8.80;5.50;;;-1.40;92.00;;;;;;5004407;28;20193;-68
2020/12/03 06:13:11;;;;;;;7.73;4.23;;;-1.30;92.10;;;;;;5005718;28;20498;-68
2020/12/03 06:15:48;;;;;;;9.70;7.13;;;-1.30;91.90;;;;;;5009289;28;20196;-68
2020/12/03 06:18:35;;;;;;;9.37;6.10;;;-1.30;92.00;;;;;;5005219;28;20572;-69
2020/12/03 06:21:07;;;;;;;6.93;5.03;;;-1.30;92.10;;;;;;5005080;28;20208;-68
2020/12/03 06:24:12;;;;;;;9.70;6.27;;;-1.20;92.40;;;;;;5007112;28;20177;-69
2020/12/03 06:26:48;;;;;;;5.53;4.23;;;-1.00;92.30;;;;;;5008094;28;20373;-69
2020/12/03 06:29:38;;;;;;;6.53;4.13;;;-0.70;92.60;;;;;;5005747;28;20257;-69
2020/12/03 06:32:31;;;;;;;5.43;4.43;;;-0.30;92.80;;;;;;4989709;28;20243;-69
2020/12/03 06:35:14;;;;;;;6.47;4.90;;;0.00;93.10;;;;;;5005465;28;20181;-69
2020/12/03 06:38:09;;;;;;;7.87;5.50;;;0.30;91.40;;;;;;5002856;28;20209;-68
2020/12/03 06:40:39;;;;;;;8.40;5.27;;;0.70;91.20;;;;;;4999256;28;20765;-69
2020/12/03 06:43:24;;;;;;;7.83;6.27;;;1.00;91.20;;;;;;5004950;28;20211;-69
2020/12/03 06:46:08;;;;;;;6.60;6.00;;;1.40;90.00;;;;;;4985596;28;20640;-69
2020/12/03 06:49:06;;;;;;;9.43;5.67;;;1.90;89.70;;;;;;5005082;28;20189;-69
2020/12/03 06:51:44;;;;;;;11.63;6.17;;;2.40;89.50;;;;;;4930721;29;20538;-69
2020/12/03 06:54:34;;;;;;;9.40;5.77;;;2.90;89.10;;;;;;4962578;28;20180;-69
2020/12/03 06:57:21;;;;;;;11.57;6.60;;;3.50;88.00;;;;;;4934677;28;20286;-68
2020/12/03 07:00:09;;;;;;;10.23;7.07;;;4.00;84.30;;;;;;4947105;28;20213;-69
2020/12/03 07:02:53;;;;;;;14.87;8.40;;;4.50;83.90;;;;;;4938943;28;20238;-67
2020/12/03 07:05:42;;;;;;;18.03;8.10;;;5.00;80.80;;;;;;4945972;28;20187;-66
2020/12/03 07:08:32;;;;;;;15.67;7.83;;;5.40;80.10;;;;;;4944185;29;20179;-67
2020/12/03 07:11:35;;;;;;;12.97;8.37;;;5.80;79.00;;;;;;4946343;28;20417;-66
2020/12/03 07:14:15;;;;;;;14.13;8.40;;;6.10;75.90;;;;;;4946636;29;20196;-66
2020/12/03 07:17:01;;;;;;;15.57;8.27;;;6.50;75.00;;;;;;4946657;28;20230;-67
2020/12/03 07:19:45;;;;;;;19.20;8.63;;;6.60;73.60;;;;;;4940438;29;20203;-66
2020/12/03 07:22:26;;;;;;;22.57;9.67;;;6.50;72.30;;;;;;4945983;28;20227;-66
2020/12/03 07:24:53;;;;;;;14.93;8.73;;;6.60;72.90;;;;;;4938847;29;20541;-67
2020/12/03 07:27:37;;;;;;;15.50;9.43;;;6.60;72.40;;;;;;4944357;28;20210;-66
2020/12/03 07:30:11;;;;;;;17.50;10.30;;;6.90;72.60;;;;;;4996210;28;20260;-67
2020/12/03 07:32:52;;;;;;;15.10;8.87;;;7.20;72.20;;;;;;5006100;28;20224;-67
2020/12/03 07:35:21;;;;;;;14.17;9.50;;;7.50;71.30;;;;;;5005032;28;20738;-67
2020/12/03 07:38:00;;;;;;;14.80;8.77;;;7.80;70.50;;;;;;5006984;28;20184;-66
2020/12/03 07:40:26;;;;;;;14.63;8.40;;;8.10;70.10;;;;;;5005864;28;20230;-66
2020/12/03 07:43:19;;;;;;;16.80;10.37;;;8.40;69.20;;;;;;5022122;28;20223;-66
2020/12/03 07:45:49;;;;;;;19.60;9.53;;;8.70;68.80;;;;;;5003650;28;20661;-67
2020/12/03 07:48:33;;;;;;;15.73;9.17;;;8.90;68.30;;;;;;5004014;28;20631;-66
2020/12/03 07:51:02;;;;;;;16.30;9.90;;;9.30;68.00;;;;;;5001608;28;20220;-67
2020/12/03 07:53:29;;;;;;;14.93;8.93;;;9.30;66.40;;;;;;5004107;28;20529;-67
2020/12/03 07:55:55;;;;;;;11.77;8.30;;;9.30;66.20;;;;;;5007538;28;20201;-67
2020/12/03 07:58:35;;;;;;;16.63;9.20;;;9.00;66.50;;;;;;5005779;28;20599;-67
2020/12/03 08:01:24;;;;;;;17.63;10.50;;;9.00;67.00;;;;;;5005648;28;20231;-68
2020/12/03 08:03:51;;;;;;;15.77;10.17;;;9.30;67.00;;;;;;4993119;28;20188;-67
2020/12/03 08:06:29;;;;;;;16.30;10.37;;;9.80;66.10;;;;;;5003037;28;20213;-67
2020/12/03 08:09:03;;;;;;;17.60;10.07;;;10.30;65.70;;;;;;5002246;28;20280;-67
2020/12/03 08:11:49;;;;;;;16.67;9.75;;;10.80;65.40;;;;;;5006655;28;20207;-67
2020/12/03 08:14:36;;;;;;;16.60;10.43;;;11.40;63.90;;;;;;5007660;28;20315;-67
2020/12/03 08:17:06;;;;;;;15.07;10.70;;;11.80;62.90;;;;;;5011625;28;20216;-67
2020/12/03 08:19:38;;;;;;;17.25;10.90;;;12.10;62.20;;;;;;5011182;28;20184;-67
2020/12/03 08:22:05;;;;;;;15.98;10.85;;;12.30;61.90;;;;;;5009542;28;20216;-67
2020/12/03 08:24:33;;;;;;;19.85;11.18;;;12.20;60.90;;;;;;5011134;28;20177;-67
2020/12/03 08:27:03;;;;;;;15.07;11.02;;;12.10;61.80;;;;;;4999001;28;20210;-67
2020/12/03 08:29:37;;;;;;;19.42;11.68;;;12.30;60.90;;;;;;5002826;28;20192;-66
2020/12/03 08:32:03;;;;;;;18.33;11.52;;;12.70;60.80;;;;;;5009484;28;20202;-66
2020/12/03 08:34:37;;;;;;;17.45;10.93;;;13.10;60.70;;;;;;5008881;28;20185;-66
2020/12/03 08:37:04;;;;;;;18.73;11.15;;;13.20;59.90;;;;;;5010773;28;20459;-66
2020/12/03 08:39:33;;;;;;;17.35;12.10;;;13.30;59.10;;;;;;5009472;28;20397;-66
2020/12/03 08:42:00;;;;;;;20.00;11.98;;;13.60;58.70;;;;;;5009446;28;20231;-66
2020/12/03 08:44:28;;;;;;;18.15;11.93;;;13.90;58.00;;;;;;5010492;28;20287;-67
2020/12/03 08:47:00;;;;;;;21.00;14.18;;;14.20;57.40;;;;;;5009196;28;20558;-66
2020/12/03 08:49:26;;;;;;;27.38;18.27;;;14.50;57.90;;;;;;5008505;28;20176;-66
2020/12/03 08:51:56;;;;;;;20.33;13.48;;;14.80;56.90;;;;;;5009150;28;20197;-66
2020/12/03 08:54:26;;;;;;;15.55;10.55;;;15.10;56.70;;;;;;5009034;28;20193;-66
2020/12/03 08:57:01;;;;;;;14.13;10.55;;;15.50;56.70;;;;;;5010697;28;20204;-66
2020/12/03 08:59:44;;;;;;;17.90;10.93;;;15.80;55.60;;;;;;5009533;28;20180;-66
2020/12/03 09:02:11;;;;;;;18.48;11.10;;;16.10;56.20;;;;;;5010538;28;20275;-66
2020/12/03 09:04:44;;;;;;;17.25;10.95;;;16.30;54.80;;;;;;5010458;28;20592;-66
2020/12/03 09:07:15;;;;;;;20.13;13.68;;;16.30;54.70;;;;;;5009457;28;20767;-66
2020/12/03 09:09:45;;;;;;;21.27;13.30;;;16.40;54.10;;;;;;5010592;28;20161;-66
2020/12/03 09:12:16;;;;;;;21.65;14.10;;;16.50;54.70;;;;;;5009589;28;20312;-67
2020/12/03 09:14:42;;;;;;;24.15;15.05;;;16.70;53.90;;;;;;5001473;28;20181;-67
2020/12/03 09:17:09;;;;;;;22.00;13.73;;;16.90;54.20;;;;;;5008608;28;20580;-66
2020/12/03 09:19:35;;;;;;;18.33;13.13;;;16.70;54.40;;;;;;5010091;28;20588;-67
2020/12/03 09:22:03;;;;;;;25.25;13.90;;;17.00;54.30;;;;;;5000854;28;20603;-67
2020/12/03 09:24:29;;;;;;;19.95;12.13;;;17.10;53.20;;;;;;5009706;28;20544;-67
2020/12/03 09:27:02;;;;;;;16.35;11.15;;;17.30;52.80;;;;;;5008682;28;20205;-67
2020/12/03 09:29:28;;;;;;;19.10;12.77;;;17.20;52.80;;;;;;5009781;28;20639;-67
2020/12/03 09:31:59;;;;;;;18.55;12.02;;;17.30;53.30;;;;;;5008420;28;20462;-67
2020/12/03 09:34:29;;;;;;;19.52;11.50;;;17.30;54.00;;;;;;5008732;28;20579;-66
2020/12/03 09:36:57;;;;;;;15.32;11.63;;;16.90;53.50;;;;;;5008410;28;20217;-67
2020/12/03 09:39:24;;;;;;;17.08;11.20;;;16.60;53.60;;;;;;5008826;28;20280;-67
2020/12/03 09:41:50;;;;;;;18.73;11.38;;;16.10;53.40;;;;;;5009752;28;20185;-67
2020/12/03 09:44:16;;;;;;;13.55;10.50;;;16.10;53.80;;;;;;5009634;28;20177;-67
2020/12/03 09:46:46;;;;;;;17.02;11.43;;;16.10;54.60;;;;;;5009582;28;20291;-67
2020/12/03 09:49:15;;;;;;;18.58;10.20;;;16.20;54.50;;;;;;5009294;28;20204;-68
2020/12/03 09:51:42;;;;;;;15.20;9.50;;;16.50;54.20;;;;;;5009382;28;20537;-67
2020/12/03 09:54:08;;;;;;;12.38;9.40;;;16.70;53.60;;;;;;5009792;28;20209;-68
2020/12/03 09:56:37;;;;;;;11.93;8.45;;;16.90;53.90;;;;;;5008219;28;20701;-67
2020/12/03 09:59:04;;;;;;;12.23;8.52;;;17.10;53.50;;;;;;5008361;28;20291;-68
2020/12/03 10:02:02;;;;;;;11.88;8.23;;;17.40;53.20;;;;;;5008379;28;20197;-68
2020/12/03 10:04:28;;;;;;;14.30;9.25;;;17.80;53.20;;;;;;5029007;28;20282;-67
2020/12/03 10:07:06;;;;;;;13.15;8.88;;;18.10;52.10;;;;;;5028405;28;20330;-67
2020/12/03 10:10:05;;;;;;;11.13;8.07;;;18.40;51.60;;;;;;5029125;28;20244;-67
2020/12/03 10:12:42;;;;;;;12.80;9.38;;;18.60;50.30;;;;;;5045825;28;20223;-67
2020/12/03 10:15:35;;;;;;;14.65;9.88;;;18.70;52.00;;;;;;5045862;28;20276;-66
2020/12/03 10:18:07;;;;;;;15.32;9.63;;;18.90;51.40;;;;;;5045449;28;20179;-66
2020/12/03 10:20:36;;;;;;;14.13;9.68;;;19.10;50.70;;;;;;5046062;28;20171;-67
2020/12/03 10:23:04;;;;;;;12.18;9.70;;;19.20;51.30;;;;;;5043558;28;20490;-66
2020/12/03 10:25:33;;;;;;;14.10;9.73;;;19.30;51.30;;;;;;5061950;28;20522;-67
2020/12/03 10:28:12;;;;;;;13.77;9.85;;;19.40;51.20;;;;;;5045411;28;20195;-66
2020/12/03 10:30:39;;;;;;;14.40;10.27;;;19.40;49.70;;;;;;5028851;28;20199;-67
2020/12/03 10:33:34;;;;;;;18.30;11.30;;;19.10;50.60;;;;;;5045237;28;20191;-66
2020/12/03 10:36:06;;;;;;;13.88;10.30;;;19.00;50.70;;;;;;4970030;28;20209;-67
2020/12/03 10:38:44;;;;;;;14.50;10.18;;;19.20;51.40;;;;;;4946953;28;20568;-67
2020/12/03 10:41:10;;;;;;;17.60;11.27;;;19.40;51.40;;;;;;4939861;29;20263;-67
2020/12/03 10:43:39;;;;;;;18.42;12.07;;;19.50;50.10;;;;;;4935464;29;20183;-68
2020/12/03 10:46:12;;;;;;;16.80;11.77;;;19.50;50.40;;;;;;4947633;29;20629;-68
2020/12/03 10:48:48;;;;;;;16.63;11.60;;;19.50;50.70;;;;;;4947627;29;20209;-68
2020/12/03 10:51:17;;;;;;;16.73;11.85;;;19.50;51.00;;;;;;4962604;28;20221;-68
2020/12/03 10:54:05;;;;;;;15.20;11.80;;;19.40;51.60;;;;;;4930347;29;20227;-68
2020/12/03 10:56:36;;;;;;;17.63;11.43;;;19.40;50.70;;;;;;4943877;28;20218;-67
2020/12/03 10:59:09;;;;;;;20.58;12.93;;;19.70;50.80;;;;;;4928890;29;20203;-67
2020/12/03 11:01:35;;;;;;;18.75;12.98;;;19.60;50.80;;;;;;4946752;29;20358;-67
2020/12/03 11:04:05;;;;;;;18.35;12.73;;;19.70;49.80;;;;;;4947392;29;20197;-68
2020/12/03 11:06:32;;;;;;;16.92;12.10;;;19.50;51.90;;;;;;4947244;28;20222;-67
2020/12/03 11:09:00;;;;;;;18.67;12.15;;;19.60;51.70;;;;;;4930751;29;20583;-68
2020/12/03 11:11:36;;;;;;;15.45;11.65;;;19.70;51.00;;;;;;4946425;28;20216;-67
2020/12/03 11:14:02;;;;;;;17.98;11.63;;;19.80;51.40;;;;;;5005082;28;20189;-67
2020/12/03 11:16:32;;;;;;;15.88;12.13;;;19.90;51.40;;;;;;5006781;28;20212;-67
2020/12/03 11:19:02;;;;;;;13.43;10.48;;;20.00;49.40;;;;;;5008001;28;20179;-68
2020/12/03 11:21:31;;;;;;;21.30;11.65;;;20.00;51.20;;;;;;5007414;28;20310;-68
2020/12/03 11:24:14;;;;;;;14.13;10.50;;;20.00;50.10;;;;;;5007457;28;20251;-67
2020/12/03 11:26:44;;;;;;;16.52;11.32;;;20.00;50.10;;;;;;4988542;28;20194;-67
2020/12/03 11:29:15;;;;;;;13.10;10.05;;;20.00;51.10;;;;;;4986884;28;20185;-67
2020/12/03 11:31:42;;;;;;;13.93;9.85;;;20.00;51.40;;;;;;4987975;28;20542;-68
2020/12/03 11:34:08;;;;;;;14.35;10.38;;;20.10;51.30;;;;;;4988441;28;20215;-68
2020/12/03 11:36:37;;;;;;;15.43;10.73;;;20.00;50.60;;;;;;4990252;28;20616;-68
2020/12/03 11:39:05;;;;;;;14.60;10.35;;;19.90;51.00;;;;;;5008131;28;20173;-68
2020/12/03 11:49:27;;;;;;;17.90;10.93;;;19.70;49.60;;;;;;5005401;28;20192;-68
2020/12/03 11:51:53;;;;;;;20.15;11.32;;;19.60;51.90;;;;;;4991273;28;20200;-72
2020/12/03 11:54:27;;;;;;;17.45;11.20;;;19.70;51.50;;;;;;5005277;28;20184;-70
2020/12/03 11:57:00;;;;;;;16.70;11.55;;;19.80;50.30;;;;;;5008338;28;20408;-70
2020/12/03 11:59:37;;;;;;;15.88;11.07;;;19.80;51.10;;;;;;5000952;28;20183;-70
2020/12/03 12:02:05;;;;;;;12.05;9.85;;;19.70;51.00;;;;;;5019734;28;20270;-69
2020/12/03 12:12:24;;;;;;;12.65;8.98;;;18.50;52.10;;;;;;5000945;28;20208;-68
2020/12/03 12:14:49;;;;;;;9.85;8.25;;;18.30;51.30;;;;;;5005439;28;20188;-70
2020/12/03 12:17:17;;;;;;;9.18;8.25;;;18.20;52.90;;;;;;5003846;28;20208;-72
2020/12/03 12:19:44;;;;;;;10.57;8.50;;;18.10;53.10;;;;;;5006278;28;20177;-72
2020/12/03 12:22:13;;;;;;;15.85;8.85;;;18.10;52.70;;;;;;4988560;28;20583;-72
2020/12/03 12:24:46;;;;;;;12.60;8.32;;;18.00;52.50;;;;;;5005034;28;20189;-71
2020/12/03 12:27:12;;;;;;;9.82;7.57;;;17.60;53.10;;;;;;5003636;28;20220;-69
2020/12/03 12:29:39;;;;;;;8.80;7.68;;;17.00;53.30;;;;;;4999436;28;20519;-68
2020/12/03 12:32:05;;;;;;;9.38;7.80;;;16.40;53.70;;;;;;5005347;28;20542;-69
2020/12/03 12:34:32;;;;;;;11.52;7.80;;;15.80;54.40;;;;;;4997926;28;20638;-68
2020/12/03 12:36:58;;;;;;;13.48;8.40;;;15.40;55.70;;;;;;4996929;28;20589;-68
2020/12/03 12:39:24;;;;;;;13.57;8.77;;;14.90;56.00;;;;;;5014653;28;20633;-69
2020/12/03 12:42:16;;;;;;;11.90;8.48;;;14.40;56.80;;;;;;4994990;28;20284;-68
2020/12/03 12:44:42;;;;;;;12.43;7.78;;;14.00;57.10;;;;;;5003405;28;20196;-68
2020/12/03 12:47:07;;;;;;;9.35;8.05;;;13.60;57.90;;;;;;5004818;28;20205;-68
2020/12/03 12:49:34;;;;;;;10.13;8.15;;;13.30;58.00;;;;;;5003692;28;20307;-68
2020/12/03 12:51:59;;;;;;;12.77;8.45;;;12.90;59.50;;;;;;4998998;28;20292;-69
2020/12/03 12:54:25;;;;;;;10.30;7.72;;;12.50;60.20;;;;;;5005330;28;20268;-68
2020/12/03 12:56:53;;;;;;;10.60;7.80;;;12.30;60.40;;;;;;5004714;28;20601;-68
2020/12/03 12:59:20;;;;;;;14.55;8.70;;;12.00;61.10;;;;;;5005031;28;20631;-68
2020/12/03 13:01:50;;;;;;;12.45;8.63;;;11.80;61.20;;;;;;5007397;28;20694;-68
2020/12/03 13:04:18;;;;;;;12.48;7.60;;;11.60;61.10;;;;;;5010377;28;20177;-68
2020/12/03 13:06:44;;;;;;;13.05;8.95;;;11.40;61.60;;;;;;4993321;28;20301;-68
2020/12/03 13:09:11;;;;;;;13.25;9.18;;;11.20;62.60;;;;;;5017847;28;20679;-68
2020/12/03 13:11:37;;;;;;;11.50;8.05;;;11.00;62.80;;;;;;5009194;28;20232;-68
2020/12/03 13:14:06;;;;;;;13.57;8.55;;;10.80;63.10;;;;;;5024071;28;20200;-68
2020/12/03 13:16:33;;;;;;;13.73;7.75;;;10.60;63.20;;;;;;5004115;28;20497;-68